Terminal Aerodrome Forecast
Issued by NWS

Home | Current Version | Previous Version | Text Only | Print | Product List | Glossary On
Versions: 1 2 3 4 5 6 7 8 9 10 11 12 13 14 15 16 17 18 19 20 21 22 23 24
000
FTUS41 KOKX 252300
TAFSWF
TAF
KSWF 252331Z 2600/2706 VRB02KT P6SM BKN100
     FM260300 32006KT P6SM BKN100
     FM260700 36006KT P6SM SCT050 OVC100
     FM261100 04006KT 4SM -SN OVC015
     FM261300 05007KT 1/2SM SN FG OVC007
     FM261600 03009KT 1/2SM SN FG OVC004
     FM262100 03011G18KT 1/2SM SN FZFG OVC004
     FM270200 33011KT 6SM -SHSN OVC030
      AMD NOT SKED=

USA.gov is the U.S. government's official web portal to all federal, state and local government web resources and services.